Terminal Aerodrome Forecast
Issued by NWS Raleigh/Durham, NC

Home | Current Version | Previous Version | Text Only | Print | Product List | Glossary On
Versions: 1 2 3 4 5 6 7 8 9 10 11 12 13 14 15 16 17 18 19 20 21 22 23 24 25 26 27 28
000
FTUS42 KRAH 232337
TAFRDU
TAF
KRDU 232337Z 2400/2424 17003KT P6SM SCT060 SCT250
     FM240900 VRB02KT 3SM BR BKN100
     FM241100 00000KT 1/2SM FG BKN005
     FM241300 VRB03KT 6SM BR SCT007 BKN080
     FM241400 19004KT P6SM SCT025 SCT090
     FM241700 19005KT P6SM BKN050=

USA.gov is the U.S. government's official web portal to all federal, state and local government web resources and services.